Time;durP1;ratioP1;P1;durP2;ratioP2;P2;SDS_P1;SDS_P2;PMS_P1;PMS_P2;Temp;Humidity;BMP_temperature;BMP_pressure;BME280_temperature;BME280_humidity;BME280_pressure;Samples;Min_cycle;Max_cycle;Signal;HPM_P1;HPM_P2
2023/07/25 00:01:28;;;;;;;2.35;1.90;;;17.20;99.90;;;;;;5053196;28;20210;-58
2023/07/25 00:03:54;;;;;;;4.20;2.20;;;17.30;99.90;;;;;;5053096;28;20271;-58
2023/07/25 00:06:21;;;;;;;3.03;2.00;;;17.30;99.90;;;;;;5052817;28;20295;-58
2023/07/25 00:08:48;;;;;;;3.10;2.42;;;17.30;99.90;;;;;;5052833;28;20206;-58
2023/07/25 00:11:15;;;;;;;3.95;2.50;;;17.30;99.90;;;;;;5053135;28;20210;-58
2023/07/25 00:13:42;;;;;;;3.28;2.10;;;17.40;99.90;;;;;;5053314;28;20213;-58
2023/07/25 00:16:09;;;;;;;2.55;2.22;;;17.30;99.90;;;;;;5052453;28;20237;-58
2023/07/25 00:18:37;;;;;;;2.30;2.00;;;17.40;99.90;;;;;;5052871;28;20271;-58
2023/07/25 00:21:04;;;;;;;2.70;2.20;;;17.40;99.90;;;;;;5052809;28;20212;-58
2023/07/25 00:23:30;;;;;;;3.10;2.20;;;17.50;99.90;;;;;;5052769;28;20256;-60
2023/07/25 00:25:58;;;;;;;3.40;1.98;;;17.60;99.90;;;;;;5052822;28;20713;-57
2023/07/25 00:28:24;;;;;;;2.45;2.22;;;17.60;99.90;;;;;;5052889;28;20225;-56
2023/07/25 00:30:51;;;;;;;2.70;2.00;;;17.60;99.90;;;;;;5052828;28;20206;-57
2023/07/25 00:33:18;;;;;;;2.53;2.33;;;17.60;99.90;;;;;;5052877;28;20213;-56
2023/07/25 00:35:53;;;;;;;3.38;2.22;;;17.60;99.90;;;;;;5052317;28;20210;-57
2023/07/25 00:38:19;;;;;;;2.78;2.13;;;17.60;99.90;;;;;;5052971;28;20264;-58
2023/07/25 00:40:46;;;;;;;2.85;2.22;;;17.60;99.90;;;;;;5052756;28;20205;-57
2023/07/25 00:43:13;;;;;;;2.60;2.17;;;17.60;99.90;;;;;;5052645;28;20340;-56
2023/07/25 00:45:40;;;;;;;2.50;1.95;;;17.50;99.90;;;;;;5052500;28;20260;-57
2023/07/25 00:48:06;;;;;;;3.08;2.08;;;17.50;99.90;;;;;;5052268;28;20209;-57
2023/07/25 00:50:33;;;;;;;3.33;2.30;;;17.50;99.90;;;;;;5052351;28;20205;-56
2023/07/25 00:53:02;;;;;;;4.65;2.80;;;17.50;99.90;;;;;;5052462;28;20201;-57
2023/07/25 00:55:30;;;;;;;2.47;1.90;;;17.50;99.90;;;;;;5052448;28;20209;-57
2023/07/25 00:57:57;;;;;;;3.08;2.33;;;17.50;99.90;;;;;;5051732;28;20222;-57
2023/07/25 01:00:24;;;;;;;2.63;2.08;;;17.40;99.90;;;;;;5052146;28;20220;-56
2023/07/25 01:02:50;;;;;;;4.63;2.22;;;17.40;99.90;;;;;;5051595;28;20202;-57
2023/07/25 01:05:17;;;;;;;3.15;2.10;;;17.30;99.90;;;;;;5052202;28;20209;-57
2023/07/25 01:07:44;;;;;;;4.60;2.03;;;17.30;99.90;;;;;;5052141;28;20229;-56
2023/07/25 01:10:14;;;;;;;3.85;2.20;;;17.30;99.90;;;;;;5052585;28;20205;-57
2023/07/25 01:12:40;;;;;;;5.00;2.42;;;17.20;99.90;;;;;;5052460;28;20611;-57
2023/07/25 01:15:08;;;;;;;3.15;2.20;;;17.20;99.90;;;;;;5052588;28;20547;-56
2023/07/25 01:17:35;;;;;;;3.25;2.20;;;17.10;99.90;;;;;;5051798;28;20225;-57
2023/07/25 01:20:02;;;;;;;5.53;2.38;;;17.10;99.90;;;;;;5051741;28;20724;-57
2023/07/25 01:22:31;;;;;;;2.40;2.20;;;17.00;99.90;;;;;;5051687;28;20574;-57
2023/07/25 01:25:00;;;;;;;2.95;2.13;;;17.00;99.90;;;;;;5052005;28;20209;-57
2023/07/25 01:27:27;;;;;;;3.65;2.30;;;17.00;99.90;;;;;;5051620;28;20234;-57
2023/07/25 01:29:54;;;;;;;7.65;2.25;;;16.90;99.90;;;;;;5051253;28;20259;-56
2023/07/25 01:32:20;;;;;;;3.05;2.35;;;16.90;99.90;;;;;;5051635;28;20681;-57
2023/07/25 01:34:47;;;;;;;3.42;1.90;;;16.90;99.90;;;;;;5051874;28;20209;-57
2023/07/25 01:37:14;;;;;;;6.40;2.30;;;16.80;99.90;;;;;;5051051;28;20229;-57
2023/07/25 01:39:42;;;;;;;3.97;2.25;;;16.80;99.90;;;;;;5051565;28;20210;-56
2023/07/25 01:42:10;;;;;;;2.92;2.20;;;16.80;99.90;;;;;;5051432;28;20202;-57
2023/07/25 01:44:37;;;;;;;4.90;2.47;;;16.80;99.90;;;;;;5051561;28;20210;-59
2023/07/25 01:47:04;;;;;;;2.60;2.20;;;16.80;99.90;;;;;;5051424;28;20599;-57
2023/07/25 01:49:30;;;;;;;4.45;2.50;;;16.80;99.90;;;;;;5051577;28;20210;-58
2023/07/25 01:51:57;;;;;;;4.15;2.28;;;16.80;99.90;;;;;;5051403;28;20209;-58
2023/07/25 01:54:24;;;;;;;3.20;2.42;;;16.70;99.90;;;;;;5051482;28;20566;-57
2023/07/25 01:56:50;;;;;;;5.07;2.40;;;16.70;99.90;;;;;;5050911;28;20232;-57
2023/07/25 01:59:19;;;;;;;2.72;2.38;;;16.70;99.90;;;;;;5051109;28;20229;-57
2023/07/25 02:01:46;;;;;;;4.32;2.55;;;16.80;99.90;;;;;;5051172;28;20214;-57
2023/07/25 02:04:12;;;;;;;3.47;2.33;;;16.80;99.90;;;;;;5051527;28;20205;-57
2023/07/25 02:06:39;;;;;;;3.10;2.45;;;16.70;99.90;;;;;;5050964;28;20236;-57
2023/07/25 02:09:06;;;;;;;3.03;2.40;;;16.70;99.90;;;;;;5051256;28;20262;-58
2023/07/25 02:11:32;;;;;;;2.25;1.98;;;16.70;99.90;;;;;;5051262;28;20210;-57
2023/07/25 02:13:59;;;;;;;2.70;2.38;;;16.60;99.90;;;;;;5051102;28;20213;-57
2023/07/25 02:16:27;;;;;;;4.68;2.20;;;16.60;99.90;;;;;;5054494;28;20225;-58
2023/07/25 02:18:54;;;;;;;3.20;2.63;;;16.60;99.90;;;;;;5055358;28;20610;-57
2023/07/25 02:21:20;;;;;;;3.13;2.75;;;16.60;99.90;;;;;;5055130;28;20232;-57
2023/07/25 02:23:47;;;;;;;4.25;2.50;;;16.60;99.90;;;;;;5055104;28;20621;-57
2023/07/25 02:26:14;;;;;;;3.63;2.50;;;16.70;99.90;;;;;;5054206;28;20760;-57
2023/07/25 02:28:40;;;;;;;3.67;2.50;;;16.60;99.90;;;;;;5055146;28;20209;-57
2023/07/25 02:31:07;;;;;;;6.18;3.95;;;16.60;99.90;;;;;;5055098;28;20206;-57
2023/07/25 02:33:35;;;;;;;3.55;2.42;;;16.70;99.90;;;;;;5054921;28;20209;-57
2023/07/25 02:36:02;;;;;;;4.22;2.53;;;16.60;99.90;;;;;;5054518;28;20225;-57
2023/07/25 02:38:29;;;;;;;2.63;2.25;;;16.60;99.90;;;;;;5054832;28;20642;-57
2023/07/25 02:40:55;;;;;;;3.13;2.38;;;16.60;99.90;;;;;;5054638;28;20205;-57
2023/07/25 02:43:23;;;;;;;3.00;2.35;;;16.60;99.90;;;;;;5054768;28;20263;-57
2023/07/25 02:45:49;;;;;;;4.78;2.60;;;16.60;99.90;;;;;;5054643;28;20265;-57
2023/07/25 02:48:16;;;;;;;3.15;2.42;;;16.60;99.90;;;;;;5054716;28;20233;-56
2023/07/25 02:50:44;;;;;;;3.85;3.28;;;16.70;99.90;;;;;;5054687;28;20212;-57
2023/07/25 02:53:11;;;;;;;2.80;2.55;;;16.70;99.90;;;;;;5054666;28;20205;-57
2023/07/25 02:55:38;;;;;;;6.23;3.17;;;16.60;99.90;;;;;;5054578;28;20212;-57
2023/07/25 02:58:05;;;;;;;4.38;2.80;;;16.60;99.90;;;;;;5054326;28;20826;-57
2023/07/25 03:00:31;;;;;;;3.03;2.60;;;16.70;99.90;;;;;;5054478;28;20206;-56
2023/07/25 03:02:58;;;;;;;4.20;2.53;;;16.70;99.90;;;;;;5054291;28;20214;-56
2023/07/25 03:05:27;;;;;;;5.63;2.83;;;16.80;99.90;;;;;;5054472;28;20634;-56
2023/07/25 03:07:55;;;;;;;4.28;2.72;;;16.80;99.90;;;;;;5053887;28;20229;-57
2023/07/25 03:10:22;;;;;;;4.47;2.53;;;16.90;99.90;;;;;;5054174;28;20570;-56
2023/07/25 03:12:49;;;;;;;49.80;44.75;;;16.90;99.90;;;;;;5054196;28;20209;-57
2023/07/25 03:15:16;;;;;;;5.85;3.33;;;17.00;99.90;;;;;;5054200;28;20212;-58
2023/07/25 03:17:42;;;;;;;5.15;2.80;;;16.90;99.90;;;;;;5053597;28;20233;-56
2023/07/25 03:20:10;;;;;;;5.70;2.80;;;16.90;99.90;;;;;;5054041;28;20210;-57
2023/07/25 03:22:37;;;;;;;7.50;2.30;;;17.00;99.90;;;;;;5053931;28;20689;-56
2023/07/25 03:25:05;;;;;;;4.00;2.92;;;17.00;99.90;;;;;;5054115;28;20213;-58
2023/07/25 03:27:32;;;;;;;3.70;2.78;;;17.00;99.90;;;;;;5053033;28;20233;-58
2023/07/25 03:29:58;;;;;;;4.03;2.50;;;17.00;99.90;;;;;;5053755;28;20206;-56
2023/07/25 03:32:25;;;;;;;3.50;2.90;;;17.00;99.90;;;;;;5053869;28;20201;-56
2023/07/25 03:34:52;;;;;;;2.88;2.50;;;17.20;99.90;;;;;;5053996;28;20593;-56
2023/07/25 03:37:18;;;;;;;5.03;2.72;;;17.30;99.90;;;;;;5053526;28;20233;-56
2023/07/25 03:39:45;;;;;;;4.05;2.90;;;17.40;99.90;;;;;;5053899;28;20232;-58
2023/07/25 03:42:13;;;;;;;6.30;2.70;;;17.50;99.90;;;;;;5053610;28;20673;-57
2023/07/25 03:44:40;;;;;;;4.90;2.78;;;17.60;99.90;;;;;;5053962;28;20213;-59
2023/07/25 03:47:07;;;;;;;4.20;2.50;;;17.70;99.90;;;;;;5053656;28;20237;-58
2023/07/25 03:49:33;;;;;;;2.95;2.30;;;17.80;99.90;;;;;;5059114;28;20681;-56
2023/07/25 03:52:00;;;;;;;2.95;2.35;;;17.70;99.90;;;;;;5053267;28;20597;-57
2023/07/25 03:54:27;;;;;;;5.53;2.72;;;17.70;99.90;;;;;;5053595;28;20217;-57
2023/07/25 03:56:53;;;;;;;3.47;2.45;;;17.80;99.90;;;;;;5053319;28;20651;-58
2023/07/25 03:59:21;;;;;;;2.85;2.38;;;17.80;99.90;;;;;;5053075;28;20221;-58
2023/07/25 04:01:48;;;;;;;5.10;2.50;;;17.80;99.90;;;;;;5053530;28;20210;-58
2023/07/25 04:04:15;;;;;;;3.88;3.00;;;17.80;99.90;;;;;;5053109;28;20209;-58
2023/07/25 04:06:42;;;;;;;3.25;2.72;;;17.80;99.90;;;;;;5053336;28;20232;-57
2023/07/25 04:09:08;;;;;;;6.13;2.80;;;17.90;99.90;;;;;;5053355;28;20241;-58
2023/07/25 04:11:35;;;;;;;3.58;3.00;;;17.90;99.90;;;;;;5052922;28;20202;-58
2023/07/25 04:14:02;;;;;;;3.25;2.58;;;17.80;99.90;;;;;;5053034;28;20670;-57
2023/07/25 04:16:30;;;;;;;4.75;3.10;;;17.80;99.90;;;;;;5052465;28;20234;-58
2023/07/25 04:18:57;;;;;;;3.35;2.45;;;17.80;99.90;;;;;;5052741;28;20233;-57
2023/07/25 04:21:24;;;;;;;5.20;2.50;;;17.90;99.90;;;;;;5053207;28;20201;-57
2023/07/25 04:23:50;;;;;;;6.03;2.50;;;17.80;99.90;;;;;;5052977;28;20201;-57
2023/07/25 04:26:17;;;;;;;3.00;2.30;;;17.60;99.90;;;;;;5052386;28;20241;-57
2023/07/25 04:28:44;;;;;;;3.47;2.22;;;17.40;99.90;;;;;;5052989;28;20232;-57
2023/07/25 04:31:10;;;;;;;3.30;2.58;;;17.20;99.90;;;;;;5052697;28;20206;-56
2023/07/25 04:33:38;;;;;;;3.67;2.40;;;17.10;99.90;;;;;;5052653;28;20216;-58
2023/07/25 04:36:06;;;;;;;2.35;2.15;;;17.20;99.90;;;;;;5052612;28;20225;-57
2023/07/25 04:38:33;;;;;;;3.55;2.50;;;17.30;99.90;;;;;;5051948;28;20222;-58
2023/07/25 04:41:00;;;;;;;2.58;2.20;;;17.40;99.90;;;;;;5052655;28;20212;-58
2023/07/25 04:43:26;;;;;;;2.83;2.15;;;17.40;99.90;;;;;;5052549;28;20210;-57
2023/07/25 04:45:53;;;;;;;3.60;2.50;;;17.40;99.90;;;;;;5051967;28;20230;-58
2023/07/25 04:48:20;;;;;;;2.88;2.33;;;17.50;99.90;;;;;;5052607;28;20201;-58
2023/07/25 04:50:48;;;;;;;4.25;2.58;;;17.70;99.90;;;;;;5052538;28;20621;-57
2023/07/25 04:53:15;;;;;;;6.05;2.40;;;17.80;99.90;;;;;;5052226;28;20244;-58
2023/07/25 04:55:41;;;;;;;4.65;2.40;;;17.80;99.90;;;;;;5052043;28;20575;-58
2023/07/25 04:58:08;;;;;;;4.90;2.53;;;17.80;99.90;;;;;;5052078;28;20676;-58
2023/07/25 05:00:35;;;;;;;3.70;2.50;;;17.90;99.90;;;;;;5051836;28;20216;-57
2023/07/25 05:03:01;;;;;;;5.35;2.17;;;17.90;99.90;;;;;;5052238;28;20206;-57
2023/07/25 05:05:28;;;;;;;3.08;2.78;;;18.00;99.90;;;;;;5051983;28;20209;-58
2023/07/25 05:07:56;;;;;;;3.38;2.60;;;18.10;99.90;;;;;;5051925;28;20209;-57
2023/07/25 05:10:23;;;;;;;6.38;2.58;;;18.20;99.90;;;;;;5051985;28;20208;-57
2023/07/25 05:12:49;;;;;;;5.28;2.40;;;18.30;99.90;;;;;;5051375;28;20339;-57
2023/07/25 05:15:16;;;;;;;5.68;2.80;;;18.30;99.90;;;;;;5051838;28;20343;-59
2023/07/25 05:17:43;;;;;;;4.82;2.85;;;18.40;99.90;;;;;;5051149;28;20633;-56
2023/07/25 05:20:10;;;;;;;2.38;2.15;;;18.40;99.90;;;;;;5051199;28;20607;-57
2023/07/25 05:22:37;;;;;;;4.25;2.50;;;18.60;99.90;;;;;;5052020;28;20209;-57
2023/07/25 05:25:06;;;;;;;3.10;2.33;;;18.60;99.90;;;;;;5051598;28;20209;-58
2023/07/25 05:27:32;;;;;;;3.97;2.63;;;18.70;99.90;;;;;;5051080;28;20237;-59
2023/07/25 05:29:59;;;;;;;3.55;2.90;;;18.80;99.90;;;;;;5051743;28;20296;-58
2023/07/25 05:32:26;;;;;;;5.03;3.47;;;18.80;99.90;;;;;;5051599;28;20259;-58
2023/07/25 05:34:52;;;;;;;5.15;3.60;;;18.90;99.90;;;;;;5051597;28;20545;-58
2023/07/25 05:37:19;;;;;;;4.72;3.33;;;18.90;99.90;;;;;;5052017;28;20222;-57
2023/07/25 05:39:46;;;;;;;6.85;4.32;;;19.00;99.90;;;;;;5051587;28;20229;-57
2023/07/25 05:42:14;;;;;;;14.98;7.18;;;19.10;99.90;;;;;;5051286;28;20243;-58
2023/07/25 05:44:41;;;;;;;6.15;4.70;;;19.20;99.90;;;;;;5051457;28;20305;-58
2023/07/25 05:47:07;;;;;;;6.03;3.05;;;19.20;99.90;;;;;;5051168;28;20236;-58
2023/07/25 05:49:34;;;;;;;8.13;4.85;;;19.20;99.90;;;;;;5051217;28;20209;-57
2023/07/25 05:52:01;;;;;;;11.20;4.40;;;19.20;99.90;;;;;;5051521;28;20202;-57
2023/07/25 05:54:28;;;;;;;5.82;3.63;;;19.20;99.90;;;;;;5051553;28;20201;-56
2023/07/25 05:56:55;;;;;;;11.80;7.53;;;19.20;99.90;;;;;;5050848;28;20591;-57
2023/07/25 05:59:23;;;;;;;23.27;15.05;;;19.20;99.90;;;;;;5051806;28;20245;-56
2023/07/25 06:01:50;;;;;;;4.22;3.20;;;19.10;99.90;;;;;;5051377;28;20704;-56
2023/07/25 06:04:17;;;;;;;5.45;3.20;;;18.80;99.90;;;;;;5051334;28;20209;-56
2023/07/25 06:06:43;;;;;;;4.63;3.03;;;18.70;99.90;;;;;;5050832;28;20322;-58
2023/07/25 06:09:10;;;;;;;6.35;3.95;;;18.60;99.90;;;;;;5051206;28;20205;-57
2023/07/25 06:11:37;;;;;;;4.88;3.65;;;18.70;99.90;;;;;;5051277;28;20212;-57
2023/07/25 06:14:04;;;;;;;5.28;3.75;;;18.90;99.90;;;;;;5051047;28;20206;-58
2023/07/25 06:16:32;;;;;;;6.18;3.92;;;19.00;99.90;;;;;;5050901;28;20225;-57
2023/07/25 06:18:59;;;;;;;3.70;3.28;;;19.20;99.90;;;;;;5050841;28;20712;-57
2023/07/25 06:21:25;;;;;;;4.50;3.15;;;19.20;99.90;;;;;;5051121;28;20267;-57
2023/07/25 06:23:52;;;;;;;6.28;3.53;;;19.20;99.90;;;;;;5050797;28;20700;-57
2023/07/25 06:26:19;;;;;;;6.72;3.50;;;19.20;99.90;;;;;;5051090;28;20237;-59
2023/07/25 06:28:45;;;;;;;9.88;3.90;;;19.20;99.90;;;;;;5050969;28;20205;-59
2023/07/25 06:31:12;;;;;;;6.05;3.35;;;19.10;99.90;;;;;;5050891;28;20206;-58
2023/07/25 06:33:40;;;;;;;5.60;3.40;;;19.00;99.90;;;;;;5050862;28;20220;-66
2023/07/25 06:36:07;;;;;;;3.90;3.00;;;19.00;99.90;;;;;;5050507;28;20221;-60
2023/07/25 06:38:33;;;;;;;5.25;3.45;;;19.10;99.90;;;;;;5050542;28;20213;-61
2023/07/25 06:41:00;;;;;;;4.03;3.53;;;19.10;99.90;;;;;;5051061;28;20599;-59
2023/07/25 06:43:27;;;;;;;5.88;3.60;;;19.20;99.90;;;;;;5051009;28;20233;-61
2023/07/25 06:45:54;;;;;;;6.97;3.40;;;19.40;99.90;;;;;;5050529;28;20268;-62
2023/07/25 06:48:21;;;;;;;4.38;3.08;;;19.60;99.90;;;;;;5051259;28;20215;-62
2023/07/25 06:50:49;;;;;;;3.80;2.70;;;19.80;99.90;;;;;;5051187;28;20216;-61
2023/07/25 06:53:16;;;;;;;4.50;3.30;;;20.00;99.90;;;;;;5050747;28;20206;-62
2023/07/25 06:55:42;;;;;;;4.65;3.13;;;20.00;99.90;;;;;;5050561;28;20577;-60
2023/07/25 06:58:09;;;;;;;4.43;3.00;;;20.00;99.90;;;;;;5050855;28;20240;-61
2023/07/25 07:00:37;;;;;;;6.90;3.25;;;20.10;99.90;;;;;;5051219;28;20283;-61
2023/07/25 07:03:05;;;;;;;6.57;3.05;;;20.10;99.90;;;;;;5054487;28;20255;-61
2023/07/25 07:05:32;;;;;;;4.53;2.88;;;20.10;99.90;;;;;;5054027;28;20237;-61
2023/07/25 07:08:00;;;;;;;4.35;3.22;;;20.00;99.90;;;;;;5054080;28;20206;-61
2023/07/25 07:10:26;;;;;;;4.70;2.97;;;19.90;99.90;;;;;;5054298;28;20201;-61
2023/07/25 07:12:53;;;;;;;5.85;3.15;;;19.90;99.90;;;;;;5054204;28;20205;-61
2023/07/25 07:15:23;;;;;;;6.05;3.40;;;19.90;99.90;;;;;;5054071;28;20239;-60
2023/07/25 07:17:50;;;;;;;5.82;3.30;;;19.80;99.90;;;;;;5053911;28;20225;-61
2023/07/25 07:20:17;;;;;;;6.20;2.78;;;19.90;99.90;;;;;;5054456;28;20228;-60
2023/07/25 07:22:44;;;;;;;3.95;3.13;;;19.90;99.90;;;;;;5054149;28;20621;-61
2023/07/25 07:25:12;;;;;;;3.17;2.42;;;19.90;99.90;;;;;;5054117;28;20215;-61
2023/07/25 07:27:39;;;;;;;3.97;2.63;;;20.00;99.90;;;;;;5053656;28;20237;-61
2023/07/25 07:30:07;;;;;;;7.10;2.50;;;20.10;99.90;;;;;;5054205;28;20720;-61
2023/07/25 07:32:33;;;;;;;3.65;2.55;;;20.10;99.90;;;;;;5053526;28;20213;-61
2023/07/25 07:35:00;;;;;;;3.20;2.20;;;20.20;99.90;;;;;;5054149;28;20213;-61
2023/07/25 07:37:27;;;;;;;3.45;2.65;;;20.30;99.90;;;;;;5053518;28;20229;-60
2023/07/25 07:39:54;;;;;;;2.03;1.83;;;20.60;99.90;;;;;;5053819;28;20229;-60
2023/07/25 07:42:21;;;;;;;3.75;2.25;;;20.80;99.90;;;;;;5053821;28;20293;-61
2023/07/25 07:44:48;;;;;;;3.58;2.00;;;21.00;99.90;;;;;;5053745;28;20209;-61
2023/07/25 07:47:15;;;;;;;5.38;3.03;;;21.20;99.90;;;;;;5053756;28;20221;-61
2023/07/25 07:49:41;;;;;;;3.65;2.00;;;21.40;99.90;;;;;;5053343;28;20300;-61
2023/07/25 07:52:08;;;;;;;2.55;1.98;;;21.50;99.90;;;;;;5053554;28;20229;-66
2023/07/25 07:54:35;;;;;;;5.20;1.92;;;21.70;99.90;;;;;;5053597;28;20234;-62
2023/07/25 07:57:02;;;;;;;2.63;1.88;;;21.90;99.90;;;;;;5053246;28;20233;-61
2023/07/25 07:59:30;;;;;;;3.03;2.10;;;22.00;99.90;;;;;;5053200;28;20226;-61
2023/07/25 08:01:57;;;;;;;2.25;1.90;;;22.20;99.90;;;;;;5053519;28;20205;-62
2023/07/25 08:04:23;;;;;;;2.15;1.73;;;22.30;99.90;;;;;;5053209;28;20206;-62
2023/07/25 08:06:50;;;;;;;4.38;2.13;;;22.50;99.90;;;;;;5052949;28;20229;-62
2023/07/25 08:09:17;;;;;;;2.45;1.88;;;22.60;99.90;;;;;;5053435;28;20211;-63
2023/07/25 08:11:43;;;;;;;2.45;2.08;;;22.70;99.90;;;;;;5052840;28;20213;-62
2023/07/25 08:14:10;;;;;;;1.90;1.63;;;22.90;99.90;;;;;;5052147;28;20575;-62
2023/07/25 08:16:38;;;;;;;2.60;1.75;;;23.20;99.90;;;;;;5053153;28;20221;-63
2023/07/25 08:19:05;;;;;;;2.92;1.88;;;23.60;99.90;;;;;;5053103;28;20622;-61
2023/07/25 08:21:32;;;;;;;4.28;2.03;;;24.10;99.90;;;;;;5053240;28;20630;-62
2023/07/25 08:23:58;;;;;;;2.70;2.10;;;24.70;99.90;;;;;;5053180;28;20208;-63
2023/07/25 08:26:25;;;;;;;2.45;1.60;;;25.10;99.90;;;;;;5052550;28;20240;-62
2023/07/25 08:28:52;;;;;;;5.50;1.90;;;25.40;99.90;;;;;;5052911;28;20550;-63
2023/07/25 08:31:19;;;;;;;2.10;1.50;;;25.80;99.90;;;;;;5052851;28;20358;-62
2023/07/25 08:33:48;;;;;;;2.75;1.83;;;27.40;99.90;;;;;;5052553;28;20696;-62
2023/07/25 08:36:14;;;;;;;3.17;1.77;;;28.80;99.90;;;;;;5052599;28;20225;-62
2023/07/25 08:38:41;;;;;;;2.75;1.58;;;29.10;99.90;;;;;;5052914;28;20214;-62
2023/07/25 08:41:11;;;;;;;3.28;1.80;;;29.40;99.90;;;;;;5051507;28;20487;-63
2023/07/25 08:43:39;;;;;;;4.18;1.63;;;29.60;99.90;;;;;;5049352;28;20269;-63
2023/07/25 08:46:08;;;;;;;3.13;1.67;;;29.40;99.90;;;;;;5051933;28;20323;-63
2023/07/25 08:48:37;;;;;;;3.05;1.75;;;29.00;99.90;;;;;;5052809;28;20300;-61
2023/07/25 08:51:07;;;;;;;3.65;1.77;;;28.50;99.90;;;;;;5054470;28;20212;-63
2023/07/25 08:53:36;;;;;;;2.53;1.90;;;28.00;99.90;;;;;;5053196;28;20209;-63
2023/07/25 08:56:04;;;;;;;3.67;1.70;;;27.60;99.90;;;;;;5051334;28;20236;-62
2023/07/25 08:58:31;;;;;;;3.15;1.90;;;27.30;99.90;;;;;;5052082;28;20297;-63
2023/07/25 09:00:58;;;;;;;4.07;1.77;;;27.10;99.90;;;;;;5052186;28;20225;-63
2023/07/25 09:03:26;;;;;;;3.47;2.10;;;27.00;99.90;;;;;;5052184;28;20216;-62
2023/07/25 09:05:53;;;;;;;4.43;1.95;;;27.20;99.90;;;;;;5051716;28;20233;-63
2023/07/25 09:08:21;;;;;;;2.83;1.70;;;27.40;99.90;;;;;;5054166;28;20547;-62
2023/07/25 09:10:49;;;;;;;2.45;1.80;;;27.50;99.90;;;;;;5052100;28;20241;-61
2023/07/25 09:13:15;;;;;;;3.03;1.95;;;27.60;99.90;;;;;;5052499;28;20255;-62
2023/07/25 09:15:42;;;;;;;3.45;1.80;;;27.80;99.90;;;;;;5052437;28;20565;-61
2023/07/25 09:18:09;;;;;;;3.85;2.20;;;28.10;99.90;;;;;;5052129;28;20585;-63
2023/07/25 09:20:37;;;;;;;5.80;2.05;;;28.40;99.90;;;;;;5051456;28;20612;-62
2023/07/25 09:23:04;;;;;;;4.13;2.08;;;28.60;99.90;;;;;;5051725;28;20315;-66
2023/07/25 09:25:33;;;;;;;6.95;2.15;;;28.70;99.90;;;;;;5051060;28;20717;-62
2023/07/25 09:27:59;;;;;;;2.67;2.00;;;28.70;99.90;;;;;;5050929;28;20217;-63
2023/07/25 09:30:27;;;;;;;2.80;1.73;;;28.50;99.90;;;;;;5051560;28;20616;-60
2023/07/25 09:32:54;;;;;;;2.95;1.90;;;28.40;99.90;;;;;;5051288;28;20315;-60
2023/07/25 09:35:23;;;;;;;2.08;1.70;;;28.40;99.90;;;;;;5051209;28;20209;-60
2023/07/25 09:37:53;;;;;;;2.40;1.80;;;28.50;99.90;;;;;;5051198;28;20229;-60
2023/07/25 09:40:20;;;;;;;3.83;1.90;;;28.40;99.90;;;;;;5051475;28;20225;-60
2023/07/25 09:42:50;;;;;;;8.27;2.38;;;28.20;99.90;;;;;;5051220;28;20197;-60
2023/07/25 09:45:18;;;;;;;3.75;2.20;;;28.00;99.90;;;;;;5050803;28;20308;-60
2023/07/25 09:47:45;;;;;;;4.47;2.20;;;27.90;99.90;;;;;;5050718;28;20253;-59
2023/07/25 09:50:12;;;;;;;3.40;1.80;;;27.80;99.90;;;;;;5050778;28;20220;-60
2023/07/25 09:52:40;;;;;;;3.47;2.00;;;27.80;99.90;;;;;;5051352;28;20205;-60
2023/07/25 09:55:07;;;;;;;3.85;1.75;;;27.90;99.90;;;;;;5051125;28;20237;-60
2023/07/25 09:57:34;;;;;;;2.88;1.70;;;27.90;99.90;;;;;;5050288;28;20713;-59
2023/07/25 10:00:05;;;;;;;2.65;1.92;;;27.80;99.90;;;;;;5050749;28;20217;-58
2023/07/25 10:02:33;;;;;;;3.47;1.50;;;27.80;99.90;;;;;;5050637;28;20676;-60
2023/07/25 10:05:00;;;;;;;2.38;1.48;;;27.90;99.90;;;;;;5050891;28;20685;-59
2023/07/25 10:07:28;;;;;;;2.40;1.58;;;28.00;99.90;;;;;;5050591;28;20230;-60
2023/07/25 10:09:57;;;;;;;2.10;1.55;;;28.20;99.90;;;;;;5050349;28;20216;-60
2023/07/25 10:12:24;;;;;;;3.45;1.40;;;28.40;99.90;;;;;;5050556;28;20214;-61
2023/07/25 10:14:52;;;;;;;2.50;1.50;;;28.50;99.90;;;;;;5050721;28;20292;-58
2023/07/25 10:17:20;;;;;;;3.15;1.70;;;28.50;99.90;;;;;;5050639;28;20250;-60
2023/07/25 10:19:49;;;;;;;3.58;1.55;;;28.30;99.90;;;;;;5050974;28;20201;-60
2023/07/25 10:22:16;;;;;;;2.22;1.40;;;28.10;99.90;;;;;;5050658;28;20595;-61
2023/07/25 10:24:43;;;;;;;3.88;2.10;;;28.00;99.90;;;;;;5050622;28;20206;-60
2023/07/25 10:27:13;;;;;;;3.35;2.20;;;27.80;99.90;;;;;;5050179;28;20244;-60
2023/07/25 10:29:42;;;;;;;6.63;2.00;;;27.60;99.90;;;;;;5050354;28;20250;-60
2023/07/25 10:32:12;;;;;;;3.83;1.55;;;27.50;99.90;;;;;;5051249;28;20654;-60
2023/07/25 10:34:49;;;;;;;2.20;1.40;;;27.40;99.90;;;;;;5050543;28;20255;-60
2023/07/25 10:37:28;;;;;;;4.15;1.90;;;27.50;99.90;;;;;;5053364;28;20728;-61
2023/07/25 10:40:11;;;;;;;3.13;1.52;;;27.60;99.90;;;;;;5054333;28;20290;-61
2023/07/25 10:42:43;;;;;;;2.75;1.50;;;27.50;99.90;;;;;;5054883;28;20205;-58
2023/07/25 10:45:21;;;;;;;2.80;1.33;;;27.50;99.90;;;;;;5054587;28;20245;-57
2023/07/25 10:47:49;;;;;;;3.83;1.50;;;27.40;99.90;;;;;;5053914;28;20233;-58
2023/07/25 10:50:19;;;;;;;4.05;2.25;;;27.40;99.90;;;;;;5054354;28;20255;-63
2023/07/25 10:52:46;;;;;;;3.80;2.00;;;27.70;99.90;;;;;;5054344;28;20213;-63
2023/07/25 10:55:14;;;;;;;3.47;1.73;;;27.90;99.80;;;;;;5053979;28;20209;-61
2023/07/25 10:57:40;;;;;;;4.18;1.73;;;27.90;99.80;;;;;;5054160;28;20225;-62
2023/07/25 11:00:09;;;;;;;2.75;1.50;;;27.80;99.00;;;;;;5053736;28;20214;-62
2023/07/25 11:02:38;;;;;;;3.75;1.70;;;27.50;99.40;;;;;;5054201;28;20737;-62
2023/07/25 11:05:23;;;;;;;2.97;1.70;;;27.20;99.90;;;;;;5053795;28;20205;-60
2023/07/25 11:07:52;;;;;;;2.75;1.50;;;27.30;99.90;;;;;;5053780;28;20340;-63
2023/07/25 11:10:26;;;;;;;2.65;1.77;;;27.30;99.90;;;;;;5053867;28;20583;-61
2023/07/25 11:12:55;;;;;;;3.80;1.55;;;27.40;99.90;;;;;;5054159;28;20213;-65
2023/07/25 11:15:22;;;;;;;1.05;0.85;;;27.60;99.90;;;;;;5054102;28;20202;-66
2023/07/25 11:17:49;;;;;;;1.80;1.20;;;27.70;98.60;;;;;;5053599;28;20233;-61
2023/07/25 11:20:17;;;;;;;3.45;1.33;;;27.70;97.90;;;;;;5053341;28;20213;-61
2023/07/25 11:22:48;;;;;;;5.75;1.55;;;27.80;96.70;;;;;;5053052;28;20659;-61
2023/07/25 11:25:14;;;;;;;3.28;1.40;;;27.90;95.80;;;;;;5053571;28;20210;-59
2023/07/25 11:27:42;;;;;;;2.25;1.20;;;27.90;95.40;;;;;;5053023;28;20244;-64
2023/07/25 11:30:12;;;;;;;2.70;1.40;;;27.80;95.20;;;;;;5052940;28;20212;-61
2023/07/25 11:32:39;;;;;;;2.17;1.10;;;27.70;94.90;;;;;;5051932;28;20254;-65
2023/07/25 11:35:07;;;;;;;5.30;1.23;;;27.60;95.20;;;;;;5052960;28;20312;-62
2023/07/25 11:37:33;;;;;;;3.28;1.50;;;27.60;95.00;;;;;;5053230;28;20640;-63
2023/07/25 11:40:13;;;;;;;2.33;1.05;;;27.90;95.20;;;;;;5053599;28;20212;-62
2023/07/25 11:42:40;;;;;;;2.72;1.23;;;28.30;94.50;;;;;;5053262;28;20205;-62
2023/07/25 11:45:09;;;;;;;0.82;0.80;;;28.50;93.80;;;;;;5053159;28;20674;-64
2023/07/25 11:47:36;;;;;;;1.67;0.85;;;28.60;93.90;;;;;;5052416;28;20225;-63
2023/07/25 11:50:04;;;;;;;5.50;1.50;;;28.50;93.00;;;;;;5053246;28;20214;-60
2023/07/25 11:52:31;;;;;;;6.95;1.02;;;28.40;92.90;;;;;;5053274;28;20292;-59
2023/07/25 11:54:58;;;;;;;2.15;1.40;;;28.30;93.60;;;;;;5052926;28;20677;-63
2023/07/25 11:57:26;;;;;;;2.50;1.10;;;28.30;93.90;;;;;;5052412;28;20233;-61
2023/07/25 11:59:54;;;;;;;2.17;1.10;;;28.40;93.70;;;;;;5052965;28;20257;-60
2023/07/25 12:02:22;;;;;;;1.17;0.85;;;28.60;93.60;;;;;;5051130;28;20312;-60
2023/07/25 12:04:49;;;;;;;5.18;0.82;;;28.60;93.20;;;;;;5052778;28;20205;-63
2023/07/25 12:07:16;;;;;;;2.00;1.13;;;28.30;93.70;;;;;;5051899;28;20729;-60
2023/07/25 12:09:53;;;;;;;2.78;0.90;;;27.60;94.00;;;;;;5052305;28;20225;-63
2023/07/25 12:12:21;;;;;;;1.80;0.90;;;26.70;95.90;;;;;;5052762;28;20201;-64
2023/07/25 12:14:57;;;;;;;3.80;1.50;;;25.90;97.30;;;;;;5052976;28;20669;-60
2023/07/25 12:17:23;;;;;;;1.25;0.90;;;25.30;99.20;;;;;;5052430;28;20253;-59
2023/07/25 12:19:53;;;;;;;2.05;0.70;;;24.60;99.90;;;;;;5052436;28;20566;-67
2023/07/25 12:22:20;;;;;;;1.98;1.00;;;24.20;99.90;;;;;;5052200;28;20300;-60
2023/07/25 12:24:47;;;;;;;4.78;1.60;;;23.80;99.90;;;;;;5052478;28;20585;-60
2023/07/25 12:27:18;;;;;;;3.53;1.05;;;23.70;99.90;;;;;;5052757;28;20240;-57
2023/07/25 12:29:45;;;;;;;3.97;0.95;;;23.70;99.90;;;;;;5052435;28;20588;-57
2023/07/25 12:32:14;;;;;;;1.40;0.60;;;23.70;99.90;;;;;;5052602;28;20201;-57
2023/07/25 12:34:40;;;;;;;0.70;0.50;;;23.60;99.90;;;;;;5052274;28;20739;-56
2023/07/25 12:37:07;;;;;;;1.02;0.47;;;23.40;99.90;;;;;;5052330;28;20240;-56
2023/07/25 12:39:34;;;;;;;2.20;0.75;;;23.20;99.90;;;;;;5052552;28;20201;-57
2023/07/25 12:42:00;;;;;;;1.35;0.70;;;23.20;99.90;;;;;;5052343;28;20230;-57
2023/07/25 12:44:27;;;;;;;0.88;0.65;;;23.20;99.90;;;;;;5051867;28;20214;-57
2023/07/25 12:46:54;;;;;;;1.92;0.90;;;23.00;99.90;;;;;;5051835;28;20226;-57